Palisade, CO (81526)

7:15 AM MST en Febrero 21, 2017 (GMT -0700)
Rapid Creek Road | | Change Station

Alt 4980 ft 39.13 °N, 108.32 °W | Updated 6 minutes ago

Muy nublado
Muy nublado
44.3 ° F
Sensación térmica 44 ° F
N
1.0
Viento Variable Viento desde SSO
Gusts 4.0 mph

Hoy
Alta -- | Baja -- ° F
--% Posibilidad de precipitaciones
Ayer
Alta -- | Baja -- ° F
Precip. -- pul
Presión 30.23 pul
Visibilidad 10.0 Millas
Nubes Nublado 6000 ft
Vientos helados 44 ° F
Punto de rocío 35 ° F
Humedad 69%
Precipitaciones 0.00 pul
Espesor de la nieve No disponible.
6:56 AM 5:57 PM
Creciente menguante, 25% visible
METAR KGJT 211353Z 09008KT 10SM OVC060 06/02 A3026 RMK AO2 SLP236 T00560017
Presión 30.23 pul
Visibilidad 10.0 Millas
Nubes Nublado 6000 ft
Vientos helados 44 ° F
Punto de rocío 35 ° F
Humedad 69%
Precipitaciones 0.00 pul
Espesor de la nieve No disponible.
6:56 AM 5:57 PM
Creciente menguante, 25% visible
METAR KGJT 211353Z 09008KT 10SM OVC060 06/02 A3026 RMK AO2 SLP236 T00560017

Get Your Daily Forecast Email!

Thanks for signing up!

Be on the lookout for a verification email in your inbox.

You'll start receiving the daily forecast at 8 AM.

×

10-Day Weather Forecast

Almanac

Astronomía

Feb. 21, 2017 Salida Puesta
Hora real
Crepúsculo civil
Crepúsculo náutico
Crepúsculo astronómico
Luna
Horas de luz
Horas de luz
Tomorrow will be .
, % of the Moon is Illuminated

Extremos de hoy

Máximos del estado Bajos del estado

Community

WunderPhotos

Upload Photos

1,962,540 ¡fotos cargadas!

WunderBlog® & News

Nearby

Calidad del aire

  Calidad del aire Índice AQ Contaminante
Not available.

Grosos de nieve

Estación Profundido Altura

Actividad de terremotos

Ciudad Distance Mag. Tiempo y dato
Magnitud mínima muestra es 2,5.

Temperaturas de aguas costeras

Lugar Temperatura

Stations

Estaciones meteorológicas cercanas

Ubicación de la estación Temp. Vientos helados Punto de rocío Humedad Viento Precip. Alt Actualizado Tipo
                   

Watches & Warnings

There are currently no watches in effect.